Time;durP1;ratioP1;P1;durP2;ratioP2;P2;SDS_P1;SDS_P2;PMS_P1;PMS_P2;Temp;Humidity;BMP_temperature;BMP_pressure;BME280_temperature;BME280_humidity;BME280_pressure;Samples;Min_cycle;Max_cycle;Signal;HPM_P1;HPM_P2
2020/12/01 00:02:22;;;;;;;0.23;0.23;;;2.60;99.90;;;;;;5094838;28;20636;-84
2020/12/01 00:04:48;;;;;;;0.37;0.37;;;2.60;99.90;;;;;;5087313;28;20192;-84
2020/12/01 00:07:13;;;;;;;0.40;0.40;;;2.70;99.90;;;;;;5090674;28;20184;-84
2020/12/01 00:09:39;;;;;;;0.87;0.50;;;2.60;99.90;;;;;;5079297;28;20736;-84
2020/12/01 00:12:05;;;;;;;0.50;0.50;;;2.60;99.90;;;;;;5091007;28;20218;-84
2020/12/01 00:14:31;;;;;;;1.10;1.00;;;2.60;99.90;;;;;;5086843;28;20192;-84
2020/12/01 00:16:56;;;;;;;0.27;0.27;;;2.50;99.90;;;;;;5081267;28;20176;-85
2020/12/01 00:19:22;;;;;;;0.70;0.70;;;2.40;99.90;;;;;;5074269;28;20695;-84
2020/12/01 00:21:47;;;;;;;0.67;0.67;;;2.40;99.90;;;;;;5085185;28;20261;-84
2020/12/01 00:24:13;;;;;;;0.33;0.33;;;2.50;99.90;;;;;;5079961;28;20557;-84
2020/12/01 00:26:39;;;;;;;1.33;1.20;;;2.40;99.90;;;;;;5082477;28;20280;-84
2020/12/01 00:29:06;;;;;;;0.20;0.20;;;2.50;99.90;;;;;;5080414;28;20272;-83
2020/12/01 00:31:39;;;;;;;0.53;0.53;;;2.50;99.90;;;;;;5084170;28;20192;-84
2020/12/01 00:34:06;;;;;;;0.40;0.40;;;2.50;99.90;;;;;;5075497;28;20204;-83
2020/12/01 00:36:32;;;;;;;0.83;0.60;;;2.60;99.90;;;;;;5086307;28;20789;-83
2020/12/01 00:38:57;;;;;;;9.10;0.70;;;2.60;99.90;;;;;;5088618;28;20201;-83
2020/12/01 00:41:23;;;;;;;2.67;0.80;;;2.50;99.90;;;;;;5081510;28;20193;-84
2020/12/01 00:43:49;;;;;;;2.10;0.93;;;2.60;99.90;;;;;;5078030;28;20659;-83
2020/12/01 00:46:15;;;;;;;3.03;1.23;;;2.60;99.90;;;;;;5092697;28;20233;-84
2020/12/01 00:48:40;;;;;;;0.30;0.30;;;2.60;99.90;;;;;;5077853;28;20205;-84
2020/12/01 00:51:06;;;;;;;0.33;0.33;;;2.60;99.90;;;;;;5081473;28;20189;-85
2020/12/01 00:53:32;;;;;;;1.23;0.53;;;2.50;99.90;;;;;;5074476;28;20304;-84
2020/12/01 00:55:57;;;;;;;0.43;0.43;;;2.50;99.90;;;;;;5073092;28;20686;-83
2020/12/01 00:58:23;;;;;;;0.53;0.53;;;2.50;99.90;;;;;;5086797;28;20204;-86
2020/12/01 01:00:49;;;;;;;0.57;0.57;;;2.60;99.90;;;;;;5102948;28;20185;-83
2020/12/01 01:03:15;;;;;;;0.53;0.53;;;2.50;99.90;;;;;;5098079;28;20193;-85
2020/12/01 01:05:40;;;;;;;0.83;0.63;;;2.50;99.90;;;;;;5089721;28;20189;-83
2020/12/01 01:08:06;;;;;;;8.10;1.00;;;2.50;99.90;;;;;;5082751;28;20191;-83
2020/12/01 01:10:33;;;;;;;3.37;1.23;;;2.60;99.90;;;;;;5077450;28;20185;-83
2020/12/01 01:13:01;;;;;;;0.80;0.73;;;2.70;99.90;;;;;;5090666;28;20834;-83
2020/12/01 01:15:30;;;;;;;0.90;0.83;;;2.70;99.90;;;;;;5076080;28;20181;-83
2020/12/01 01:17:56;;;;;;;0.90;0.60;;;2.70;99.90;;;;;;5079890;28;20181;-83
2020/12/01 01:20:22;;;;;;;0.20;0.20;;;2.80;99.90;;;;;;5086496;28;20184;-83
2020/12/01 01:22:47;;;;;;;0.50;0.33;;;2.70;99.90;;;;;;5082849;28;20195;-83
2020/12/01 01:25:14;;;;;;;2.77;0.73;;;2.70;99.90;;;;;;5080615;28;20618;-84
2020/12/01 01:27:39;;;;;;;1.67;1.27;;;2.80;99.90;;;;;;5088652;28;20188;-83
2020/12/01 01:30:06;;;;;;;2.40;1.03;;;2.90;99.90;;;;;;5081141;28;20204;-83
2020/12/01 01:32:32;;;;;;;0.37;0.37;;;2.90;99.90;;;;;;5090508;28;20215;-83
2020/12/01 01:34:58;;;;;;;0.57;0.57;;;2.90;99.90;;;;;;5085564;28;20184;-83
2020/12/01 01:37:24;;;;;;;0.53;0.20;;;2.90;99.90;;;;;;5074845;28;20193;-83
2020/12/01 01:39:49;;;;;;;0.83;0.50;;;2.80;99.90;;;;;;5082439;28;20201;-84
2020/12/01 01:42:15;;;;;;;1.43;0.47;;;2.90;99.90;;;;;;5089007;28;20196;-84
2020/12/01 01:44:41;;;;;;;0.67;0.67;;;2.90;99.90;;;;;;5083786;28;20250;-84
2020/12/01 01:47:19;;;;;;;0.30;0.30;;;2.90;99.90;;;;;;5074081;28;20189;-84
2020/12/01 01:49:46;;;;;;;0.47;0.47;;;3.00;99.90;;;;;;5075866;28;20204;-84
2020/12/01 01:52:17;;;;;;;0.63;0.63;;;2.90;99.90;;;;;;5083490;28;20209;-83
2020/12/01 01:54:46;;;;;;;1.07;0.80;;;3.00;99.90;;;;;;5083588;28;20184;-84
2020/12/01 01:57:12;;;;;;;1.23;0.73;;;3.00;99.90;;;;;;5082706;28;20211;-83
2020/12/01 01:59:39;;;;;;;1.20;0.93;;;3.00;99.90;;;;;;5088223;28;20225;-84
2020/12/01 02:02:04;;;;;;;1.13;1.00;;;2.90;99.90;;;;;;5078460;28;20569;-84
2020/12/01 02:04:31;;;;;;;6.87;1.03;;;3.00;99.90;;;;;;5083095;28;20187;-83
2020/12/01 02:07:01;;;;;;;1.27;1.17;;;2.90;99.90;;;;;;5075043;28;20177;-84
2020/12/01 02:09:32;;;;;;;0.43;0.43;;;2.90;99.90;;;;;;5082829;28;20278;-85
2020/12/01 02:12:02;;;;;;;0.77;0.77;;;2.90;99.90;;;;;;5072460;28;20693;-84
2020/12/01 02:14:42;;;;;;;0.50;0.50;;;3.00;99.90;;;;;;5087479;28;20231;-84
2020/12/01 02:17:16;;;;;;;3.10;0.93;;;3.00;99.90;;;;;;5079548;28;20184;-83
2020/12/01 02:19:42;;;;;;;1.20;0.77;;;3.10;99.90;;;;;;5078875;28;20197;-85
2020/12/01 02:22:16;;;;;;;0.73;0.73;;;3.10;99.90;;;;;;5076035;28;20339;-83
2020/12/01 02:24:42;;;;;;;0.30;0.30;;;3.10;99.90;;;;;;5086774;28;20672;-85
2020/12/01 02:27:09;;;;;;;0.50;0.50;;;3.10;99.90;;;;;;5081959;28;20272;-85
2020/12/01 02:29:37;;;;;;;0.83;0.83;;;3.10;99.90;;;;;;5083619;28;20200;-84
2020/12/01 02:32:05;;;;;;;0.30;0.30;;;3.10;99.90;;;;;;5087348;28;20704;-83
2020/12/01 02:34:34;;;;;;;0.30;0.30;;;3.10;99.90;;;;;;5068742;28;20755;-84
2020/12/01 02:37:01;;;;;;;2.80;0.87;;;3.10;99.90;;;;;;5085967;28;20633;-84
2020/12/01 02:39:28;;;;;;;0.23;0.23;;;2.90;99.90;;;;;;5076357;28;20209;-85
2020/12/01 02:41:59;;;;;;;0.87;0.50;;;3.00;99.90;;;;;;5084458;28;20186;-84
2020/12/01 02:44:25;;;;;;;0.27;0.27;;;3.10;99.90;;;;;;5083873;28;20176;-84
2020/12/01 02:46:51;;;;;;;0.23;0.23;;;3.10;99.90;;;;;;5077653;28;20200;-84
2020/12/01 02:49:17;;;;;;;0.50;0.50;;;3.10;99.90;;;;;;5081336;28;20212;-84
2020/12/01 02:51:42;;;;;;;0.30;0.30;;;3.10;99.90;;;;;;5086240;28;20189;-84
2020/12/01 02:54:08;;;;;;;0.27;0.27;;;3.10;99.90;;;;;;5083171;28;20217;-84
2020/12/01 02:56:33;;;;;;;1.67;0.67;;;3.10;99.90;;;;;;5072673;28;20684;-84
2020/12/01 02:58:59;;;;;;;0.20;0.17;;;3.10;99.90;;;;;;5079208;28;20714;-84
2020/12/01 03:01:24;;;;;;;0.27;0.23;;;3.10;99.90;;;;;;5081551;28;20193;-84
2020/12/01 03:03:50;;;;;;;0.50;0.50;;;3.10;99.90;;;;;;5081754;28;20181;-83
2020/12/01 03:06:17;;;;;;;0.50;0.50;;;3.10;99.90;;;;;;5074228;28;20184;-84
2020/12/01 03:08:43;;;;;;;0.87;0.50;;;3.10;99.90;;;;;;5078595;28;20209;-84
2020/12/01 03:11:09;;;;;;;2.43;0.83;;;3.10;99.90;;;;;;5081905;28;20189;-84
2020/12/01 03:13:35;;;;;;;0.37;0.37;;;3.20;99.90;;;;;;5075721;28;20219;-83
2020/12/01 03:16:09;;;;;;;3.43;0.80;;;3.10;99.90;;;;;;5083980;28;20181;-84
2020/12/01 03:18:40;;;;;;;1.27;0.33;;;3.10;99.90;;;;;;5078378;28;20200;-83
2020/12/01 03:21:06;;;;;;;1.10;0.83;;;3.00;99.90;;;;;;5074948;28;20193;-84
2020/12/01 03:23:32;;;;;;;1.27;0.67;;;3.10;99.90;;;;;;5078307;28;20184;-84
2020/12/01 03:25:58;;;;;;;0.33;0.33;;;3.00;99.90;;;;;;5069849;28;20196;-84
2020/12/01 03:28:24;;;;;;;0.63;0.63;;;3.10;99.90;;;;;;5075851;28;20213;-84
2020/12/01 03:30:49;;;;;;;0.83;0.30;;;3.10;99.90;;;;;;5080354;28;20189;-83
2020/12/01 03:33:16;;;;;;;0.23;0.23;;;3.00;99.90;;;;;;5091333;28;20193;-83
2020/12/01 03:35:42;;;;;;;0.43;0.43;;;3.10;99.90;;;;;;5080777;28;20521;-83
2020/12/01 03:38:08;;;;;;;1.40;0.90;;;3.10;99.90;;;;;;5087048;28;20222;-85
2020/12/01 03:40:33;;;;;;;0.20;0.20;;;3.00;99.90;;;;;;5093900;28;20196;-84
2020/12/01 03:42:59;;;;;;;0.30;0.30;;;3.10;99.90;;;;;;5079379;28;20871;-84
2020/12/01 03:45:25;;;;;;;0.77;0.60;;;3.10;99.90;;;;;;5087789;28;20184;-83
2020/12/01 03:47:53;;;;;;;0.20;0.20;;;3.10;99.90;;;;;;5079489;28;20183;-84
2020/12/01 03:50:19;;;;;;;0.23;0.23;;;3.10;99.90;;;;;;5078451;28;20553;-84
2020/12/01 03:52:44;;;;;;;3.93;0.60;;;3.10;99.90;;;;;;5084678;28;20196;-83
2020/12/01 03:55:10;;;;;;;1.73;0.70;;;3.20;99.90;;;;;;5076313;28;20184;-84
2020/12/01 03:57:41;;;;;;;2.63;0.83;;;3.20;99.90;;;;;;5086458;28;20806;-84
2020/12/01 04:00:14;;;;;;;0.50;0.50;;;3.20;99.90;;;;;;5086580;28;20669;-84
2020/12/01 04:02:40;;;;;;;0.63;0.40;;;3.10;99.90;;;;;;5085784;28;20301;-84
2020/12/01 04:05:07;;;;;;;0.37;0.30;;;3.20;99.90;;;;;;5085534;28;20674;-84
2020/12/01 04:07:32;;;;;;;1.40;0.70;;;3.20;99.90;;;;;;5075934;28;20714;-85
2020/12/01 04:09:58;;;;;;;0.97;0.37;;;3.20;99.90;;;;;;5091181;28;20213;-84
2020/12/01 04:12:25;;;;;;;1.77;0.67;;;3.00;99.90;;;;;;5079965;28;20243;-83
2020/12/01 04:14:51;;;;;;;0.53;0.53;;;2.70;99.90;;;;;;5090113;28;20173;-85
2020/12/01 04:17:17;;;;;;;0.97;0.70;;;2.60;99.90;;;;;;5101935;28;20220;-85
2020/12/01 04:19:43;;;;;;;1.93;0.73;;;2.80;99.90;;;;;;5099363;28;20734;-83
2020/12/01 04:22:10;;;;;;;1.23;1.07;;;2.90;99.90;;;;;;5084957;28;20189;-83
2020/12/01 04:24:35;;;;;;;0.83;0.80;;;2.90;99.90;;;;;;5093654;28;20193;-84
2020/12/01 04:27:01;;;;;;;0.30;0.30;;;3.10;99.90;;;;;;5093739;28;20185;-84
2020/12/01 04:29:27;;;;;;;0.97;0.30;;;3.10;99.90;;;;;;5088023;28;20216;-86
2020/12/01 04:31:52;;;;;;;0.30;0.20;;;3.20;99.90;;;;;;5096340;28;20216;-84
2020/12/01 04:34:18;;;;;;;0.23;0.23;;;3.10;99.90;;;;;;5080240;28;20215;-84
2020/12/01 04:36:43;;;;;;;0.40;0.23;;;3.10;99.90;;;;;;5093546;28;20275;-84
2020/12/01 04:39:09;;;;;;;1.37;0.47;;;2.90;99.90;;;;;;5081461;28;20262;-85
2020/12/01 04:41:35;;;;;;;0.33;0.33;;;2.80;99.90;;;;;;5077935;28;20190;-85
2020/12/01 04:44:02;;;;;;;0.50;0.50;;;2.90;99.90;;;;;;5093183;28;20567;-86
2020/12/01 04:46:32;;;;;;;0.50;0.30;;;2.90;99.90;;;;;;5081459;28;20541;-84
2020/12/01 04:49:25;;;;;;;0.53;0.43;;;3.10;99.90;;;;;;5077675;28;20201;-83
2020/12/01 04:52:35;;;;;;;0.73;0.60;;;3.10;99.90;;;;;;5084910;28;20240;-85
2020/12/01 04:55:30;;;;;;;1.27;1.20;;;3.20;99.90;;;;;;5056410;28;20188;-84
2020/12/01 04:58:10;;;;;;;0.70;0.70;;;3.30;99.90;;;;;;5084189;28;20181;-86
2020/12/01 05:00:53;;;;;;;0.50;0.50;;;3.30;99.90;;;;;;5093357;28;20208;-84
2020/12/01 05:03:47;;;;;;;0.70;0.70;;;3.40;99.90;;;;;;5088619;28;20275;-84
2020/12/01 05:09:37;;;;;;;0.43;0.40;;;3.30;99.90;;;;;;5083752;28;20208;-84
2020/12/01 05:12:08;;;;;;;0.20;0.20;;;3.40;99.90;;;;;;5084526;28;20216;-85
2020/12/01 05:14:42;;;;;;;1.27;0.67;;;3.30;99.90;;;;;;5077196;28;20204;-85
2020/12/01 05:17:44;;;;;;;0.90;0.90;;;3.10;99.90;;;;;;5081764;28;20547;-85
2020/12/01 05:20:11;;;;;;;3.13;0.97;;;2.60;99.90;;;;;;5082397;28;20224;-84
2020/12/01 05:22:38;;;;;;;1.27;0.83;;;2.40;99.90;;;;;;5075570;28;20260;-85
2020/12/01 05:25:04;;;;;;;0.80;0.60;;;2.60;99.90;;;;;;5075107;28;20814;-85
2020/12/01 05:27:33;;;;;;;0.70;0.70;;;2.80;99.90;;;;;;5075900;28;20185;-85
2020/12/01 05:30:23;;;;;;;0.40;0.40;;;2.90;99.90;;;;;;5093198;28;20230;-84
2020/12/01 05:32:59;;;;;;;1.40;0.47;;;2.90;99.90;;;;;;5083063;28;20291;-83
2020/12/01 05:35:30;;;;;;;2.20;0.90;;;2.80;99.90;;;;;;5077957;28;20594;-85
2020/12/01 05:38:00;;;;;;;0.53;0.37;;;3.00;99.90;;;;;;5091672;28;20259;-84
2020/12/01 05:40:28;;;;;;;0.30;0.30;;;3.00;99.90;;;;;;5075299;28;20169;-84
2020/12/01 05:42:54;;;;;;;4.20;0.57;;;3.10;99.90;;;;;;5086803;28;20184;-84
2020/12/01 05:45:26;;;;;;;0.23;0.23;;;3.00;99.90;;;;;;5077927;28;20729;-85
2020/12/01 05:48:09;;;;;;;0.80;0.33;;;3.10;99.90;;;;;;5082800;28;20199;-84
2020/12/01 05:50:44;;;;;;;0.20;0.20;;;3.10;99.90;;;;;;5074976;28;20594;-84
2020/12/01 05:53:11;;;;;;;0.20;0.20;;;3.10;99.90;;;;;;5087702;28;20204;-85
2020/12/01 05:55:37;;;;;;;0.83;0.80;;;3.30;99.90;;;;;;5075596;28;20188;-83
2020/12/01 05:58:11;;;;;;;1.40;0.33;;;3.30;99.90;;;;;;5083489;28;20880;-85
2020/12/01 06:00:40;;;;;;;0.63;0.60;;;3.30;99.90;;;;;;5076583;28;20180;-84
2020/12/01 06:03:36;;;;;;;1.40;1.30;;;3.30;99.90;;;;;;5088765;28;20180;-83
2020/12/01 06:06:03;;;;;;;0.40;0.40;;;3.30;99.90;;;;;;5077961;28;20192;-83
2020/12/01 06:08:40;;;;;;;2.20;0.73;;;3.10;99.90;;;;;;5077059;28;20211;-83
2020/12/01 06:11:30;;;;;;;0.40;0.40;;;3.20;99.90;;;;;;5075206;28;20220;-84
2020/12/01 06:14:31;;;;;;;0.10;0.10;;;3.20;99.90;;;;;;5073230;28;20254;-83
2020/12/01 06:17:25;;;;;;;0.43;0.43;;;3.20;99.90;;;;;;5074000;28;20193;-84
2020/12/01 06:19:59;;;;;;;0.83;0.63;;;3.30;99.90;;;;;;5071521;28;20288;-84
2020/12/01 06:23:01;;;;;;;0.20;0.20;;;3.40;99.90;;;;;;5080044;28;20188;-84
2020/12/01 06:25:58;;;;;;;0.70;0.70;;;3.40;99.90;;;;;;5075016;28;20580;-84
2020/12/01 06:28:54;;;;;;;0.40;0.40;;;3.40;99.90;;;;;;5047107;28;20226;-84
2020/12/01 06:31:37;;;;;;;0.57;0.57;;;3.10;99.90;;;;;;5095745;28;20554;-83
2020/12/01 06:34:27;;;;;;;0.97;0.93;;;2.60;99.90;;;;;;5084795;28;20218;-84
2020/12/01 06:37:19;;;;;;;2.07;1.10;;;2.70;99.90;;;;;;5077804;28;20207;-87
2020/12/01 06:39:56;;;;;;;0.33;0.17;;;2.60;99.90;;;;;;5077496;28;20197;-85
2020/12/01 06:42:36;;;;;;;0.43;0.43;;;2.70;99.90;;;;;;5080119;28;20207;-85
2020/12/01 06:45:25;;;;;;;0.53;0.53;;;2.80;99.90;;;;;;5077025;28;20219;-84
2020/12/01 06:47:53;;;;;;;0.40;0.40;;;2.70;99.90;;;;;;5068419;28;20613;-84
2020/12/01 06:50:21;;;;;;;0.33;0.33;;;2.60;99.90;;;;;;5083453;28;20200;-85
2020/12/01 06:53:22;;;;;;;0.67;0.67;;;2.70;99.90;;;;;;5073687;28;20253;-85
2020/12/01 06:55:50;;;;;;;0.20;0.20;;;2.90;99.90;;;;;;5080605;28;20221;-84
2020/12/01 06:58:31;;;;;;;0.23;0.23;;;3.00;99.90;;;;;;5073184;28;20201;-84
2020/12/01 07:01:25;;;;;;;0.20;0.20;;;3.00;99.90;;;;;;5080777;28;20169;-84
2020/12/01 07:04:13;;;;;;;0.40;0.40;;;3.10;99.90;;;;;;5078952;28;20184;-86
2020/12/01 07:06:52;;;;;;;0.10;0.10;;;3.00;99.90;;;;;;5074160;28;20185;-85
2020/12/01 07:09:27;;;;;;;1.03;0.63;;;3.00;99.90;;;;;;5086585;28;20209;-85
2020/12/01 07:12:08;;;;;;;0.73;0.40;;;3.10;99.90;;;;;;5077300;28;20204;-85
2020/12/01 07:14:54;;;;;;;0.70;0.50;;;3.20;99.90;;;;;;5078426;28;20286;-85
2020/12/01 07:17:19;;;;;;;0.60;0.50;;;3.20;99.90;;;;;;5076668;28;20184;-84
2020/12/01 07:19:55;;;;;;;1.23;0.93;;;3.00;99.90;;;;;;5075406;28;20193;-85
2020/12/01 07:22:27;;;;;;;0.17;0.13;;;3.00;99.90;;;;;;5081498;28;20694;-84
2020/12/01 07:24:52;;;;;;;0.50;0.40;;;3.00;99.90;;;;;;5082576;28;20181;-84
2020/12/01 07:27:39;;;;;;;0.40;0.40;;;3.00;99.90;;;;;;5074976;28;20566;-85
2020/12/01 07:30:14;;;;;;;0.87;0.73;;;2.90;99.90;;;;;;5086708;28;20245;-85
2020/12/01 07:32:46;;;;;;;1.47;1.37;;;2.90;99.90;;;;;;5087662;28;20216;-85
2020/12/01 07:35:27;;;;;;;0.63;0.50;;;2.80;99.90;;;;;;5093012;28;20224;-85
2020/12/01 07:38:02;;;;;;;0.37;0.37;;;2.80;99.90;;;;;;5088034;28;20665;-84
2020/12/01 07:40:32;;;;;;;0.63;0.37;;;3.00;99.90;;;;;;5089913;28;20181;-84
2020/12/01 07:43:04;;;;;;;2.73;0.53;;;2.50;99.90;;;;;;5083160;28;20184;-84
2020/12/01 07:45:31;;;;;;;1.27;0.70;;;2.60;99.90;;;;;;5102963;28;20192;-83
2020/12/01 07:48:01;;;;;;;0.20;0.20;;;2.60;99.90;;;;;;5077920;28;20542;-85
2020/12/01 07:50:29;;;;;;;1.53;1.43;;;2.70;99.90;;;;;;5087649;28;20193;-83
2020/12/01 07:52:59;;;;;;;3.73;0.90;;;2.40;99.90;;;;;;5075931;28;20857;-82
2020/12/01 07:55:55;;;;;;;0.63;0.63;;;2.20;99.90;;;;;;5081096;28;20216;-83
2020/12/01 07:58:23;;;;;;;0.53;0.50;;;2.30;99.90;;;;;;5086894;28;20287;-83
2020/12/01 08:00:50;;;;;;;1.07;1.07;;;2.10;99.90;;;;;;5078193;28;20193;-83
2020/12/01 08:03:21;;;;;;;1.40;0.77;;;2.00;99.90;;;;;;5088008;28;20188;-84
2020/12/01 08:05:48;;;;;;;0.90;0.77;;;2.00;99.90;;;;;;5076210;28;20189;-84
2020/12/01 08:08:15;;;;;;;0.93;0.40;;;1.80;99.90;;;;;;5077899;28;20185;-83
2020/12/01 08:10:42;;;;;;;3.43;0.73;;;1.80;99.90;;;;;;5079857;28;20189;-84
2020/12/01 08:13:08;;;;;;;0.40;0.40;;;1.80;99.90;;;;;;5080307;28;20330;-84
2020/12/01 08:15:34;;;;;;;0.77;0.77;;;1.90;99.90;;;;;;5080151;28;20695;-84
2020/12/01 08:18:05;;;;;;;0.93;0.60;;;1.80;99.90;;;;;;5082000;28;20193;-83
2020/12/01 08:20:31;;;;;;;0.30;0.30;;;1.80;99.90;;;;;;5079285;28;20535;-84
2020/12/01 08:23:21;;;;;;;0.70;0.60;;;1.80;99.90;;;;;;5080214;28;20311;-83
2020/12/01 08:26:06;;;;;;;1.27;0.70;;;2.10;99.90;;;;;;5081423;28;20214;-83
2020/12/01 08:28:42;;;;;;;0.67;0.30;;;2.50;99.90;;;;;;5080631;28;20211;-84
2020/12/01 08:31:16;;;;;;;0.30;0.30;;;2.60;99.90;;;;;;5081515;28;20192;-86
2020/12/01 08:33:58;;;;;;;0.80;0.60;;;2.40;99.90;;;;;;5087979;28;20659;-84
2020/12/01 08:36:45;;;;;;;0.60;0.60;;;2.50;99.90;;;;;;5082150;28;20192;-85
2020/12/01 08:39:54;;;;;;;0.30;0.30;;;2.60;99.90;;;;;;5084836;28;20221;-84
2020/12/01 08:42:48;;;;;;;0.40;0.30;;;2.40;99.90;;;;;;5078999;28;20268;-84
2020/12/01 08:45:14;;;;;;;0.10;0.10;;;2.80;99.90;;;;;;5082728;28;20208;-85
2020/12/01 08:47:41;;;;;;;3.60;0.63;;;2.90;99.90;;;;;;5081512;28;20209;-84
2020/12/01 08:50:22;;;;;;;0.40;0.40;;;2.70;99.90;;;;;;5082882;28;20211;-85
2020/12/01 08:52:49;;;;;;;2.00;1.20;;;2.40;99.90;;;;;;5083886;28;20197;-83
2020/12/01 08:55:22;;;;;;;0.47;0.47;;;2.50;99.90;;;;;;5083147;28;20169;-84
2020/12/01 08:57:54;;;;;;;0.60;0.60;;;2.90;99.90;;;;;;5100217;28;20252;-84
2020/12/01 09:00:23;;;;;;;0.27;0.27;;;3.10;99.90;;;;;;5080184;28;20193;-84
2020/12/01 09:02:50;;;;;;;0.43;0.20;;;3.20;99.90;;;;;;5080915;28;20189;-85
2020/12/01 09:05:26;;;;;;;1.23;0.67;;;3.40;99.90;;;;;;5086503;28;20229;-85
2020/12/01 09:08:29;;;;;;;0.53;0.53;;;3.60;99.90;;;;;;5091519;28;20207;-84
2020/12/01 09:11:04;;;;;;;0.77;0.53;;;3.70;99.90;;;;;;5083549;28;20179;-84
2020/12/01 09:13:33;;;;;;;0.40;0.40;;;3.80;99.90;;;;;;5079434;28;20207;-82
2020/12/01 09:16:23;;;;;;;1.10;0.77;;;3.70;99.90;;;;;;5077557;28;20272;-83
2020/12/01 09:19:15;;;;;;;0.97;0.93;;;3.90;99.90;;;;;;5094436;28;20201;-82
2020/12/01 09:21:53;;;;;;;2.47;1.10;;;3.70;99.90;;;;;;5075792;28;20542;-83
2020/12/01 09:24:27;;;;;;;0.67;0.50;;;3.40;99.90;;;;;;5074437;28;20185;-83
2020/12/01 09:27:12;;;;;;;0.53;0.53;;;3.60;99.90;;;;;;5077454;28;20734;-82
2020/12/01 09:29:43;;;;;;;1.03;1.00;;;3.70;99.90;;;;;;5083704;28;20205;-82
2020/12/01 09:32:21;;;;;;;2.20;1.13;;;4.00;99.90;;;;;;5074634;28;20212;-82
2020/12/01 09:34:47;;;;;;;0.70;0.70;;;4.10;99.90;;;;;;5077551;28;20177;-83
2020/12/01 09:37:13;;;;;;;0.60;0.60;;;4.10;99.90;;;;;;5080818;28;20691;-82
2020/12/01 09:39:40;;;;;;;0.73;0.60;;;3.90;99.90;;;;;;5074946;28;20231;-83
2020/12/01 09:42:19;;;;;;;0.83;0.83;;;4.10;99.90;;;;;;5082461;28;20181;-82
2020/12/01 09:47:23;;;;;;;0.63;0.40;;;4.20;99.90;;;;;;5086255;28;20196;-82
2020/12/01 09:49:48;;;;;;;0.53;0.33;;;4.30;99.90;;;;;;5091381;28;20253;-81
2020/12/01 09:52:20;;;;;;;1.13;0.93;;;3.90;99.90;;;;;;5087108;28;20303;-82
2020/12/01 09:59:57;;;;;;;2.50;1.93;;;3.70;99.90;;;;;;5079723;28;20566;-82
2020/12/01 10:08:00;;;;;;;1.50;0.60;;;3.80;99.90;;;;;;5083411;28;20819;-82
2020/12/01 10:18:42;;;;;;;0.87;0.87;;;3.90;99.90;;;;;;5056120;28;20246;-82
2020/12/01 10:34:47;;;;;;;0.77;0.77;;;4.40;99.90;;;;;;5075358;28;20261;-82
2020/12/01 10:37:12;;;;;;;1.60;1.00;;;4.00;99.90;;;;;;5077493;28;20224;-82
2020/12/01 10:39:38;;;;;;;3.23;0.13;;;4.30;99.90;;;;;;5076201;28;20202;-82
2020/12/01 10:42:08;;;;;;;1.17;0.30;;;4.50;99.90;;;;;;5075328;28;20191;-83
2020/12/01 10:44:34;;;;;;;1.73;1.60;;;4.60;99.90;;;;;;5073668;28;20489;-82
2020/12/01 10:47:00;;;;;;;0.40;0.40;;;5.00;99.90;;;;;;5071164;28;20245;-83
2020/12/01 10:49:25;;;;;;;1.93;1.23;;;5.30;99.90;;;;;;5076445;28;20202;-83
2020/12/01 10:51:51;;;;;;;0.77;0.40;;;5.50;99.90;;;;;;5096776;28;20196;-84
2020/12/01 10:54:17;;;;;;;0.40;0.40;;;5.50;99.90;;;;;;5084363;28;20204;-81
2020/12/01 10:56:45;;;;;;;0.20;0.20;;;5.70;99.90;;;;;;5074902;28;20706;-82
2020/12/01 10:59:10;;;;;;;0.50;0.50;;;5.80;99.90;;;;;;5076276;28;20213;-81
2020/12/01 11:01:36;;;;;;;1.00;0.93;;;5.90;99.90;;;;;;5082883;28;20190;-81
2020/12/01 11:04:02;;;;;;;1.00;0.97;;;5.30;99.90;;;;;;5081639;28;20201;-82
2020/12/01 11:06:27;;;;;;;1.30;1.20;;;4.70;99.90;;;;;;5075145;28;20247;-82
2020/12/01 11:08:53;;;;;;;1.00;0.50;;;4.70;99.90;;;;;;5079158;28;20589;-81
2020/12/01 11:11:19;;;;;;;3.20;0.63;;;5.00;99.90;;;;;;5073335;28;20193;-82
2020/12/01 11:13:45;;;;;;;2.93;1.10;;;5.20;99.90;;;;;;5088492;28;20303;-82
2020/12/01 11:16:11;;;;;;;0.63;0.63;;;5.30;99.90;;;;;;5079219;28;20265;-82
2020/12/01 11:18:37;;;;;;;0.27;0.27;;;5.30;99.90;;;;;;5074383;28;20226;-82
2020/12/01 11:21:03;;;;;;;1.67;1.07;;;4.90;99.90;;;;;;5082908;28;20217;-82
2020/12/01 11:23:29;;;;;;;2.43;0.87;;;4.50;99.90;;;;;;5079391;28;20195;-82
2020/12/01 11:25:54;;;;;;;0.73;0.73;;;4.40;99.90;;;;;;5081936;28;20271;-82
2020/12/01 11:28:20;;;;;;;4.80;0.90;;;4.50;99.90;;;;;;5071671;28;20206;-83
2020/12/01 11:30:45;;;;;;;1.13;0.70;;;4.70;99.90;;;;;;5076630;28;20228;-82
2020/12/01 11:33:11;;;;;;;0.23;0.23;;;4.80;99.90;;;;;;5077182;28;20201;-81
2020/12/01 11:35:37;;;;;;;0.97;0.87;;;4.90;99.90;;;;;;5073896;28;20534;-82
2020/12/01 11:38:02;;;;;;;0.50;0.50;;;4.90;99.90;;;;;;5084046;28;20180;-82
2020/12/01 11:40:28;;;;;;;0.27;0.20;;;5.00;99.90;;;;;;5084406;28;20180;-82
2020/12/01 11:42:53;;;;;;;0.50;0.50;;;5.00;99.90;;;;;;5082676;28;20334;-81
2020/12/01 11:45:19;;;;;;;0.10;0.10;;;4.90;99.90;;;;;;5077745;28;20192;-82
2020/12/01 11:47:45;;;;;;;1.20;1.10;;;4.60;99.90;;;;;;5078433;28;20185;-82
2020/12/01 11:50:11;;;;;;;0.37;0.37;;;4.40;99.90;;;;;;5083153;28;20205;-81
2020/12/01 11:52:38;;;;;;;0.73;0.73;;;3.90;99.90;;;;;;5079566;28;20193;-82
2020/12/01 11:55:05;;;;;;;2.53;1.30;;;4.10;99.90;;;;;;5084579;28;20181;-81
2020/12/01 11:57:31;;;;;;;2.03;1.03;;;4.20;99.90;;;;;;5084789;28;20180;-82
2020/12/01 11:59:56;;;;;;;0.70;0.70;;;4.30;99.90;;;;;;5077283;28;20239;-82
2020/12/01 12:02:22;;;;;;;0.73;0.63;;;3.90;99.90;;;;;;5080663;28;20184;-81
2020/12/01 12:04:48;;;;;;;3.10;1.27;;;3.70;99.90;;;;;;5080965;28;20182;-81
2020/12/01 12:07:13;;;;;;;0.97;0.97;;;3.60;99.90;;;;;;5074252;28;20641;-81
2020/12/01 12:09:39;;;;;;;1.33;0.87;;;3.50;99.90;;;;;;5081272;28;20731;-84
2020/12/01 12:12:04;;;;;;;0.47;0.47;;;3.40;99.90;;;;;;5073583;28;20209;-82
2020/12/01 12:14:30;;;;;;;0.47;0.47;;;3.60;99.90;;;;;;5081593;28;20181;-83
2020/12/01 12:16:56;;;;;;;1.70;1.30;;;3.60;99.90;;;;;;5085475;28;20205;-84
2020/12/01 12:19:21;;;;;;;0.57;0.57;;;3.80;99.90;;;;;;5079438;28;20227;-83
2020/12/01 12:21:47;;;;;;;0.37;0.37;;;3.80;99.90;;;;;;5077214;28;20597;-83
2020/12/01 12:24:13;;;;;;;0.80;0.40;;;4.00;99.90;;;;;;5091751;28;20210;-82
2020/12/01 12:26:38;;;;;;;1.43;0.53;;;4.10;99.90;;;;;;5074124;28;20181;-83
2020/12/01 12:29:04;;;;;;;0.73;0.50;;;4.30;99.90;;;;;;5083940;28;20212;-83
2020/12/01 12:31:30;;;;;;;0.67;0.50;;;4.30;99.90;;;;;;5084697;28;20188;-82
2020/12/01 12:33:55;;;;;;;0.10;0.10;;;4.40;99.90;;;;;;5077474;28;20201;-83
2020/12/01 12:36:21;;;;;;;2.20;1.00;;;3.90;99.90;;;;;;5090151;28;20275;-83
2020/12/01 12:38:46;;;;;;;0.43;0.43;;;3.40;99.90;;;;;;5088788;28;20593;-83
2020/12/01 12:41:12;;;;;;;0.97;0.83;;;3.60;99.90;;;;;;5073147;28;20182;-83
2020/12/01 12:43:37;;;;;;;1.50;0.87;;;3.20;99.90;;;;;;5076148;28;20237;-82
2020/12/01 12:46:03;;;;;;;0.57;0.57;;;3.20;99.90;;;;;;5093982;28;20196;-82
2020/12/01 12:48:30;;;;;;;0.13;0.13;;;3.30;99.90;;;;;;5080255;28;20207;-82
2020/12/01 12:50:56;;;;;;;0.77;0.50;;;3.60;99.90;;;;;;5075837;28;20190;-83
2020/12/01 12:53:22;;;;;;;0.70;0.70;;;3.80;99.90;;;;;;5077070;28;20653;-83
2020/12/01 12:55:49;;;;;;;0.23;0.23;;;4.00;99.90;;;;;;5076981;28;20234;-83
2020/12/01 12:58:15;;;;;;;0.37;0.37;;;3.70;99.90;;;;;;5072058;28;20177;-83
2020/12/01 13:00:40;;;;;;;0.47;0.47;;;3.80;99.90;;;;;;5076367;28;20187;-83
2020/12/01 13:03:06;;;;;;;1.37;0.60;;;3.40;99.90;;;;;;5072223;28;20208;-82
2020/12/01 13:05:31;;;;;;;2.57;0.97;;;3.20;99.90;;;;;;5079193;28;20185;-83
2020/12/01 13:07:58;;;;;;;1.70;0.70;;;3.40;99.90;;;;;;5086292;28;20347;-83
2020/12/01 13:10:24;;;;;;;0.53;0.53;;;3.40;99.90;;;;;;5082898;28;20231;-83
2020/12/01 13:12:49;;;;;;;0.70;0.70;;;3.40;99.90;;;;;;5080272;28;20827;-83
2020/12/01 13:15:16;;;;;;;0.87;0.87;;;3.40;99.90;;;;;;5073329;28;20235;-84
2020/12/01 13:17:42;;;;;;;0.93;0.80;;;3.30;99.90;;;;;;5081521;28;20234;-83
2020/12/01 13:20:19;;;;;;;1.03;0.73;;;3.40;99.90;;;;;;5080636;28;20204;-83
2020/12/01 13:22:45;;;;;;;0.83;0.73;;;3.40;99.90;;;;;;5082782;28;20189;-85
2020/12/01 13:25:11;;;;;;;4.27;1.63;;;3.30;99.90;;;;;;5084222;28;21680;-81
2020/12/01 13:27:36;;;;;;;5.10;0.93;;;3.50;99.90;;;;;;5085979;28;20239;-83
2020/12/01 13:30:05;;;;;;;1.53;1.00;;;3.70;99.90;;;;;;5082723;28;20208;-82
2020/12/01 13:32:30;;;;;;;0.87;0.67;;;3.70;99.90;;;;;;5081366;28;20213;-82
2020/12/01 13:34:56;;;;;;;0.50;0.50;;;3.70;99.90;;;;;;5071892;28;20189;-82
2020/12/01 13:37:21;;;;;;;1.43;1.33;;;3.60;99.90;;;;;;5071852;28;20190;-82
2020/12/01 13:39:47;;;;;;;0.97;0.60;;;3.70;99.90;;;;;;5070352;28;20296;-82
2020/12/01 13:42:13;;;;;;;0.77;0.60;;;4.10;99.90;;;;;;5071557;28;20197;-82
2020/12/01 13:44:38;;;;;;;0.33;0.33;;;4.00;99.90;;;;;;5070582;28;20644;-83
2020/12/01 13:47:04;;;;;;;0.70;0.70;;;4.20;99.90;;;;;;5074553;28;20566;-83
2020/12/01 13:49:29;;;;;;;1.23;0.83;;;4.40;99.90;;;;;;5077759;28;20704;-83
2020/12/01 13:51:55;;;;;;;0.40;0.40;;;4.40;99.90;;;;;;5072585;28;20181;-83
2020/12/01 13:54:21;;;;;;;1.23;0.53;;;4.50;99.90;;;;;;5082735;28;20226;-82